createdAt,value
2022-10-02T00:00:16.415Z,13.19
2022-10-02T00:01:06.467Z,13.25
2022-10-02T00:01:56.429Z,13.25
2022-10-02T00:02:46.384Z,13.28
2022-10-02T00:03:36.375Z,13.29
2022-10-02T00:04:26.417Z,13.31
2022-10-02T00:05:16.607Z,13.32
2022-10-02T00:06:06.344Z,13.31
2022-10-02T00:06:56.345Z,13.29
2022-10-02T00:07:46.324Z,13.31
2022-10-02T00:08:36.324Z,13.29
2022-10-02T00:09:26.313Z,13.29
2022-10-02T00:10:16.302Z,13.31
2022-10-02T00:11:06.324Z,13.28
2022-10-02T00:11:56.284Z,13.24
2022-10-02T00:12:46.272Z,13.19
2022-10-02T00:13:36.265Z,13.09
2022-10-02T00:14:26.252Z,13.04
2022-10-02T00:15:16.249Z,13.06
2022-10-02T00:16:06.247Z,13.04
2022-10-02T00:16:56.301Z,13.06
2022-10-02T00:17:46.212Z,13.01
2022-10-02T00:18:36.211Z,13.01
2022-10-02T00:19:26.203Z,13.01
2022-10-02T00:20:16.198Z,12.99
2022-10-02T00:21:06.181Z,12.98
2022-10-02T00:21:56.182Z,12.96
2022-10-02T00:22:46.191Z,12.95
2022-10-02T00:23:36.161Z,12.94
2022-10-02T00:24:26.143Z,12.92
2022-10-02T00:25:16.140Z,12.92
2022-10-02T00:26:06.121Z,12.91
2022-10-02T00:26:56.124Z,12.91
2022-10-02T00:27:46.165Z,12.89
2022-10-02T00:28:36.611Z,12.87
2022-10-02T00:29:26.091Z,12.85
2022-10-02T00:30:16.085Z,12.85
2022-10-02T00:31:06.073Z,12.85
2022-10-02T00:31:56.131Z,12.85
2022-10-02T00:32:46.063Z,12.84
2022-10-02T00:33:36.062Z,12.81
2022-10-02T00:34:26.077Z,12.85
2022-10-02T00:35:16.031Z,12.89
2022-10-02T00:36:06.012Z,12.89
2022-10-02T00:36:56.015Z,12.91
2022-10-02T00:37:45.993Z,12.91
2022-10-02T00:38:36.001Z,12.92
2022-10-02T00:39:25.985Z,12.96
2022-10-02T00:40:16.174Z,12.98
2022-10-02T00:41:05.963Z,13.01
2022-10-02T00:41:55.954Z,13.03
2022-10-02T00:42:45.939Z,13.04
2022-10-02T00:43:35.933Z,13.04
2022-10-02T00:44:25.956Z,13.04
2022-10-02T00:45:15.927Z,13.06
2022-10-02T00:46:05.982Z,13.07
2022-10-02T00:46:55.902Z,13.07
2022-10-02T00:47:45.890Z,13.09
2022-10-02T00:48:35.884Z,13.09
2022-10-02T00:49:25.870Z,13.12
2022-10-02T00:50:15.901Z,13.12
2022-10-02T00:51:05.851Z,13.13
2022-10-02T00:51:55.848Z,13.16
2022-10-02T00:52:45.830Z,13.16
2022-10-02T00:53:35.833Z,13.16
2022-10-02T00:54:25.811Z,13.16
2022-10-02T00:55:15.820Z,13.16
2022-10-02T00:56:05.821Z,13.16
2022-10-02T00:56:55.811Z,13.19
2022-10-02T00:57:45.777Z,13.22
2022-10-02T00:58:35.770Z,13.22
2022-10-02T00:59:25.751Z,13.22
2022-10-02T01:00:15.754Z,13.24
2022-10-02T01:01:05.778Z,13.21
2022-10-02T01:01:55.755Z,13.21
2022-10-02T01:02:45.742Z,13.21
2022-10-02T01:03:35.712Z,13.21
2022-10-02T01:04:25.702Z,13.21
2022-10-02T01:05:15.698Z,13.21
2022-10-02T01:06:05.681Z,13.24
2022-10-02T01:06:55.687Z,13.24
2022-10-02T01:07:45.671Z,13.22
2022-10-02T01:08:35.731Z,13.25
2022-10-02T01:09:25.648Z,13.27
2022-10-02T01:10:15.630Z,13.27
2022-10-02T01:11:05.628Z,13.27
2022-10-02T01:11:55.619Z,13.28
2022-10-02T01:12:45.602Z,13.28
2022-10-02T01:13:35.809Z,13.24
2022-10-02T01:14:25.590Z,13.24
2022-10-02T01:15:15.588Z,13.24
2022-10-02T01:16:05.612Z,13.21
2022-10-02T01:16:55.595Z,13.21
2022-10-02T01:17:45.549Z,13.19
2022-10-02T01:18:35.549Z,13.19
2022-10-02T01:19:25.547Z,13.19
2022-10-02T01:20:15.530Z,13.16
2022-10-02T01:21:05.531Z,13.16
2022-10-02T01:21:55.510Z,13.13
2022-10-02T01:22:45.495Z,13.12
2022-10-02T01:23:35.495Z,13.10
2022-10-02T01:24:25.478Z,13.09
2022-10-02T01:25:15.468Z,13.09
2022-10-02T01:26:05.458Z,13.09
2022-10-02T01:26:55.540Z,13.16
2022-10-02T01:27:45.472Z,13.19
2022-10-02T01:28:35.432Z,13.21
2022-10-02T01:29:25.426Z,13.24
2022-10-02T01:30:15.420Z,13.25
2022-10-02T01:31:05.400Z,13.27
2022-10-02T01:31:55.440Z,13.28
2022-10-02T01:32:45.408Z,13.31
2022-10-02T01:33:35.418Z,13.29
2022-10-02T01:34:25.369Z,13.31
2022-10-02T01:35:15.367Z,13.31
2022-10-02T01:36:05.348Z,13.32
2022-10-02T01:36:55.341Z,13.36
2022-10-02T01:37:45.327Z,13.39
2022-10-02T01:38:35.319Z,13.47
2022-10-02T01:39:25.347Z,13.50
2022-10-02T01:40:15.301Z,13.55
2022-10-02T01:41:05.288Z,13.57
2022-10-02T01:41:55.279Z,13.59
2022-10-02T01:42:45.276Z,13.57
2022-10-02T01:43:35.268Z,13.57
2022-10-02T01:44:25.254Z,13.55
2022-10-02T01:45:15.265Z,13.54
2022-10-02T01:46:05.275Z,13.50
2022-10-02T01:46:55.226Z,13.48
2022-10-02T01:47:45.219Z,13.47
2022-10-02T01:48:35.218Z,13.47
2022-10-02T01:49:25.417Z,13.47
2022-10-02T01:50:15.188Z,13.47
2022-10-02T01:51:05.177Z,13.48
2022-10-02T01:51:55.169Z,13.47
2022-10-02T01:52:45.167Z,13.46
2022-10-02T01:53:35.156Z,13.43
2022-10-02T01:54:25.148Z,13.43
2022-10-02T01:55:15.168Z,13.39
2022-10-02T01:56:05.125Z,13.39
2022-10-02T01:56:55.108Z,13.39
2022-10-02T01:57:45.107Z,13.41
2022-10-02T01:58:35.086Z,13.41
2022-10-02T01:59:25.091Z,13.41
2022-10-02T02:00:15.076Z,13.44
2022-10-02T02:01:07.436Z,13.50
2022-10-02T02:01:55.092Z,13.51
2022-10-02T02:02:45.046Z,13.51
2022-10-02T02:03:35.037Z,13.51
2022-10-02T02:04:25.038Z,13.53
2022-10-02T02:05:15.015Z,13.48
2022-10-02T02:06:05.015Z,13.48
2022-10-02T02:06:55.705Z,13.46
2022-10-02T02:07:44.996Z,13.43
2022-10-02T02:08:34.978Z,13.39
2022-10-02T02:09:24.976Z,13.38
2022-10-02T02:10:14.964Z,13.36
2022-10-02T02:11:04.969Z,13.38
2022-10-02T02:11:54.946Z,13.38
2022-10-02T02:12:44.975Z,13.39
2022-10-02T02:13:34.935Z,13.36
2022-10-02T02:14:24.915Z,13.36
2022-10-02T02:15:14.906Z,13.36
2022-10-02T02:16:04.932Z,13.36
2022-10-02T02:16:54.956Z,13.38
2022-10-02T02:17:44.884Z,13.39
2022-10-02T02:18:35.078Z,13.41
2022-10-02T02:19:24.865Z,13.50
2022-10-02T02:20:14.846Z,13.53
2022-10-02T02:21:04.847Z,13.54
2022-10-02T02:21:54.833Z,13.54
2022-10-02T02:22:44.824Z,13.54
2022-10-02T02:23:34.804Z,13.54
2022-10-02T02:24:24.836Z,13.54
2022-10-02T02:25:14.794Z,13.53
2022-10-02T02:26:04.787Z,13.51
2022-10-02T02:26:54.786Z,13.47
2022-10-02T02:27:44.772Z,13.46
2022-10-02T02:28:34.753Z,13.47
2022-10-02T02:29:24.746Z,13.47
2022-10-02T02:30:14.763Z,13.47
2022-10-02T02:31:04.724Z,13.48
2022-10-02T02:31:54.779Z,13.46
2022-10-02T02:32:44.713Z,13.48
2022-10-02T02:33:34.710Z,13.50
2022-10-02T02:34:24.695Z,13.51
2022-10-02T02:35:14.683Z,13.54
2022-10-02T02:36:04.694Z,13.54
2022-10-02T02:36:54.664Z,13.54
2022-10-02T02:37:44.681Z,13.54
2022-10-02T02:38:34.643Z,13.54
2022-10-02T02:39:24.634Z,13.54
2022-10-02T02:40:14.624Z,13.54
2022-10-02T02:41:04.628Z,13.54
2022-10-02T02:41:54.604Z,13.54
2022-10-02T02:42:44.599Z,13.54
2022-10-02T02:43:34.612Z,13.54
2022-10-02T02:44:24.581Z,13.50
2022-10-02T02:45:14.574Z,13.48
2022-10-02T02:46:04.590Z,13.47
2022-10-02T02:46:54.545Z,13.46
2022-10-02T02:47:44.544Z,13.44
2022-10-02T02:48:34.540Z,13.44
2022-10-02T02:49:24.563Z,13.46
2022-10-02T02:50:14.504Z,13.46
2022-10-02T02:51:04.508Z,13.47
2022-10-02T02:51:54.493Z,13.47
2022-10-02T02:52:44.483Z,13.48
2022-10-02T02:53:34.466Z,13.47
2022-10-02T02:54:24.463Z,13.48
2022-10-02T02:55:14.482Z,13.48
2022-10-02T02:56:04.451Z,13.50
2022-10-02T02:56:54.443Z,13.51
2022-10-02T02:57:44.433Z,13.53
2022-10-02T02:58:34.414Z,13.51
2022-10-02T02:59:24.412Z,13.51
2022-10-02T03:00:14.393Z,13.53
2022-10-02T03:01:07.409Z,13.55
2022-10-02T03:01:54.418Z,13.54
2022-10-02T03:02:44.373Z,13.55
2022-10-02T03:03:34.355Z,13.57
2022-10-02T03:04:24.352Z,13.59
2022-10-02T03:05:14.333Z,13.59
2022-10-02T03:06:04.334Z,13.55
2022-10-02T03:06:55.043Z,13.55
2022-10-02T03:07:44.324Z,13.59
2022-10-02T03:08:34.302Z,13.62
2022-10-02T03:09:24.293Z,13.63
2022-10-02T03:10:14.282Z,13.71
2022-10-02T03:11:04.279Z,13.73
2022-10-02T03:11:54.262Z,13.75
2022-10-02T03:12:44.282Z,13.75
2022-10-02T03:13:34.242Z,13.79
2022-10-02T03:14:24.242Z,13.76
2022-10-02T03:15:14.226Z,13.73
2022-10-02T03:16:04.329Z,13.75
2022-10-02T03:16:54.216Z,13.75
2022-10-02T03:17:44.202Z,13.73
2022-10-02T03:18:34.181Z,13.76
2022-10-02T03:19:24.181Z,13.76
2022-10-02T03:20:14.169Z,13.76
2022-10-02T03:21:04.162Z,13.73
2022-10-02T03:21:54.191Z,13.73
2022-10-02T03:22:44.151Z,13.71
2022-10-02T03:23:34.137Z,13.71
2022-10-02T03:24:24.125Z,13.72
2022-10-02T03:25:14.112Z,13.73
2022-10-02T03:26:04.101Z,13.72
2022-10-02T03:26:54.092Z,13.72
2022-10-02T03:27:44.109Z,13.73
2022-10-02T03:28:54.574Z,13.72
2022-10-02T03:29:25.070Z,13.72
2022-10-02T03:30:14.062Z,13.72
2022-10-02T03:31:04.151Z,13.75
2022-10-02T03:31:54.139Z,13.75
2022-10-02T03:32:44.045Z,13.79
2022-10-02T03:33:34.022Z,13.79
2022-10-02T03:34:24.013Z,13.80
2022-10-02T03:35:13.993Z,13.79
2022-10-02T03:36:03.996Z,13.76
2022-10-02T03:36:53.983Z,13.81
2022-10-02T03:37:44.023Z,13.80
2022-10-02T03:38:33.962Z,13.81
2022-10-02T03:39:25.729Z,13.81
2022-10-02T03:40:13.942Z,13.83
2022-10-02T03:41:03.939Z,13.79
2022-10-02T03:41:53.935Z,13.76
2022-10-02T03:42:43.921Z,13.75
2022-10-02T03:43:33.933Z,13.73
2022-10-02T03:44:23.904Z,13.71
2022-10-02T03:45:27.281Z,13.68
2022-10-02T03:46:04.933Z,13.66
2022-10-02T03:46:54.126Z,13.66
2022-10-02T03:47:43.863Z,13.65
2022-10-02T03:48:33.850Z,13.65
2022-10-02T03:49:23.881Z,13.63
2022-10-02T03:50:13.833Z,13.63
2022-10-02T03:51:03.821Z,13.62
2022-10-02T03:51:53.811Z,13.62
2022-10-02T03:52:44.029Z,13.61
2022-10-02T03:53:33.803Z,13.59
2022-10-02T03:54:23.791Z,13.61
2022-10-02T03:55:13.773Z,13.57
2022-10-02T03:56:03.767Z,13.57
2022-10-02T03:56:53.752Z,13.53
2022-10-02T03:57:43.742Z,13.54
2022-10-02T03:58:33.763Z,13.55
2022-10-02T03:59:23.722Z,13.53
2022-10-02T04:00:13.718Z,13.51
2022-10-02T04:01:03.715Z,13.48
2022-10-02T04:01:53.739Z,13.46
2022-10-02T04:02:43.702Z,13.46
2022-10-02T04:03:33.739Z,13.43
2022-10-02T04:04:23.900Z,13.41
2022-10-02T04:05:13.653Z,13.41
2022-10-02T04:06:03.651Z,13.39
2022-10-02T04:06:53.642Z,13.38
2022-10-02T04:07:43.634Z,13.35
2022-10-02T04:08:33.634Z,13.35
2022-10-02T04:09:23.612Z,13.38
2022-10-02T04:10:13.641Z,13.38
2022-10-02T04:11:03.599Z,13.38
2022-10-02T04:11:53.584Z,13.38
2022-10-02T04:12:43.581Z,13.38
2022-10-02T04:13:33.563Z,13.31
2022-10-02T04:14:23.562Z,13.28
2022-10-02T04:15:13.551Z,13.27
2022-10-02T04:16:03.680Z,13.24
2022-10-02T04:16:53.532Z,13.24
2022-10-02T04:17:43.523Z,13.27
2022-10-02T04:18:33.514Z,13.28
2022-10-02T04:19:23.503Z,13.29
2022-10-02T04:20:13.489Z,13.29
2022-10-02T04:21:03.480Z,13.31
2022-10-02T04:21:53.498Z,13.31
2022-10-02T04:22:43.460Z,13.31
2022-10-02T04:23:33.455Z,13.31
2022-10-02T04:24:23.448Z,13.27
2022-10-02T04:25:13.439Z,13.28
2022-10-02T04:26:03.442Z,13.28
2022-10-02T04:26:53.415Z,13.24
2022-10-02T04:27:43.439Z,13.19
2022-10-02T04:28:33.399Z,13.19
2022-10-02T04:29:23.402Z,13.17
2022-10-02T04:30:13.381Z,13.19
2022-10-02T04:31:03.371Z,13.22
2022-10-02T04:31:53.421Z,13.24
2022-10-02T04:32:43.353Z,13.25
2022-10-02T04:33:37.743Z,13.28
2022-10-02T04:34:24.360Z,13.29
2022-10-02T04:35:13.322Z,13.29
2022-10-02T04:36:03.320Z,13.31
2022-10-02T04:36:53.300Z,13.31
2022-10-02T04:37:43.300Z,13.32
2022-10-02T04:38:33.282Z,13.29
2022-10-02T04:39:23.322Z,13.29
2022-10-02T04:40:13.268Z,13.31
2022-10-02T04:41:03.252Z,13.31
2022-10-02T04:41:53.252Z,13.31
2022-10-02T04:42:43.240Z,13.31
2022-10-02T04:43:33.232Z,13.35
2022-10-02T04:44:23.221Z,13.35
2022-10-02T04:45:13.239Z,13.35
2022-10-02T04:46:03.281Z,13.38
2022-10-02T04:46:53.182Z,13.39
2022-10-02T04:47:43.184Z,13.39
2022-10-02T04:48:33.170Z,13.41
2022-10-02T04:49:23.160Z,13.46
2022-10-02T04:50:13.161Z,13.51
2022-10-02T04:51:03.370Z,13.54
2022-10-02T04:51:53.136Z,13.55
2022-10-02T04:52:43.120Z,13.55
2022-10-02T04:53:33.121Z,13.54
2022-10-02T04:54:23.107Z,13.54
2022-10-02T04:55:13.100Z,13.55
2022-10-02T04:56:03.087Z,13.53
2022-10-02T04:56:53.106Z,13.50
2022-10-02T04:57:43.068Z,13.48
2022-10-02T04:58:33.059Z,13.36
2022-10-02T04:59:23.047Z,13.27
2022-10-02T05:00:13.041Z,13.22
2022-10-02T05:01:03.109Z,13.22
2022-10-02T05:01:53.047Z,13.21
2022-10-02T05:02:43.040Z,13.22
2022-10-02T05:03:33.000Z,13.21
2022-10-02T05:04:22.999Z,13.21
2022-10-02T05:05:12.978Z,13.28
2022-10-02T05:06:02.972Z,13.35
2022-10-02T05:06:52.966Z,13.43
2022-10-02T05:07:42.961Z,13.46
2022-10-02T05:08:32.967Z,13.48
2022-10-02T05:09:25.893Z,13.51
2022-10-02T05:10:13.926Z,13.51
2022-10-02T05:11:02.922Z,13.51
2022-10-02T05:11:52.906Z,13.53
2022-10-02T05:12:42.900Z,13.53
2022-10-02T05:13:32.899Z,13.53
2022-10-02T05:14:24.237Z,13.53
2022-10-02T05:15:12.869Z,13.53
2022-10-02T05:16:02.908Z,13.55
2022-10-02T05:16:52.848Z,13.57
2022-10-02T05:17:42.837Z,13.59
2022-10-02T05:18:32.828Z,13.59
2022-10-02T05:19:22.827Z,13.61
2022-10-02T05:20:12.996Z,13.63
2022-10-02T05:21:02.820Z,13.63
2022-10-02T05:21:52.803Z,13.62
2022-10-02T05:22:42.777Z,13.62
2022-10-02T05:23:32.778Z,13.61
2022-10-02T05:24:22.761Z,13.62
2022-10-02T05:25:12.756Z,13.59
2022-10-02T05:26:02.771Z,13.57
2022-10-02T05:26:52.740Z,13.55
2022-10-02T05:27:42.726Z,13.54
2022-10-02T05:28:32.814Z,13.51
2022-10-02T05:29:22.708Z,13.51
2022-10-02T05:30:12.706Z,13.50
2022-10-02T05:31:02.721Z,13.54
2022-10-02T05:31:52.799Z,13.57
2022-10-02T05:32:42.676Z,13.62
2022-10-02T05:33:32.665Z,13.65
2022-10-02T05:34:22.646Z,13.68
2022-10-02T05:35:12.646Z,13.69
2022-10-02T05:36:02.636Z,13.72
2022-10-02T05:36:52.628Z,13.72
2022-10-02T05:37:42.833Z,13.76
2022-10-02T05:38:32.608Z,13.75
2022-10-02T05:39:22.596Z,13.73
2022-10-02T05:40:12.587Z,13.75
2022-10-02T05:41:02.575Z,13.73
2022-10-02T05:41:52.568Z,13.72
2022-10-02T05:42:43.265Z,13.66
2022-10-02T05:43:32.576Z,13.61
2022-10-02T05:44:22.547Z,13.62
2022-10-02T05:45:12.535Z,13.62
2022-10-02T05:46:02.515Z,13.65
2022-10-02T05:46:52.551Z,13.72
2022-10-02T05:47:42.496Z,13.73
2022-10-02T05:48:32.494Z,13.75
2022-10-02T05:49:22.515Z,13.79
2022-10-02T05:50:12.475Z,13.79
2022-10-02T05:51:02.467Z,13.76
2022-10-02T05:51:52.459Z,13.75
2022-10-02T05:52:42.446Z,13.71
2022-10-02T05:53:32.435Z,13.72
2022-10-02T05:54:22.429Z,13.71
2022-10-02T05:55:12.558Z,13.71
2022-10-02T05:56:02.403Z,13.68
2022-10-02T05:56:52.409Z,13.63
2022-10-02T05:57:42.388Z,13.63
2022-10-02T05:58:32.374Z,13.62
2022-10-02T05:59:22.390Z,13.59
2022-10-02T06:00:12.382Z,13.59
2022-10-02T06:01:02.601Z,13.59
2022-10-02T06:01:52.475Z,13.62
2022-10-02T06:02:42.327Z,13.66
2022-10-02T06:03:32.325Z,13.71
2022-10-02T06:04:22.310Z,13.80
2022-10-02T06:05:12.306Z,13.86
2022-10-02T06:06:02.299Z,13.91
2022-10-02T06:06:52.327Z,14.04
2022-10-02T06:07:42.266Z,14.06
2022-10-02T06:08:32.265Z,14.12
2022-10-02T06:09:22.254Z,14.16
2022-10-02T06:10:12.258Z,14.17
2022-10-02T06:11:02.245Z,14.23
2022-10-02T06:11:52.226Z,14.24
2022-10-02T06:12:42.267Z,14.26
2022-10-02T06:13:32.207Z,14.27
2022-10-02T06:14:22.204Z,14.29
2022-10-02T06:15:12.199Z,14.30
2022-10-02T06:16:02.214Z,14.34
2022-10-02T06:16:52.243Z,14.31
2022-10-02T06:17:42.166Z,14.34
2022-10-02T06:18:32.179Z,14.31
2022-10-02T06:19:22.143Z,14.31
2022-10-02T06:20:12.136Z,14.31
2022-10-02T06:21:02.126Z,14.24
2022-10-02T06:21:52.116Z,14.23
2022-10-02T06:22:42.107Z,14.21
2022-10-02T06:23:32.095Z,14.21
2022-10-02T06:24:22.293Z,14.17
2022-10-02T06:25:12.074Z,14.13
2022-10-02T06:26:02.064Z,14.12
2022-10-02T06:26:52.065Z,14.13
2022-10-02T06:27:42.057Z,14.16
2022-10-02T06:28:32.092Z,14.29
2022-10-02T06:29:26.930Z,14.35
2022-10-02T06:30:13.076Z,14.41
2022-10-02T06:31:02.015Z,14.44
2022-10-02T06:31:52.052Z,14.49
2022-10-02T06:32:41.994Z,14.57
2022-10-02T06:33:31.987Z,14.60
2022-10-02T06:34:21.976Z,14.66
2022-10-02T06:35:11.963Z,14.69
2022-10-02T06:36:01.992Z,14.71
2022-10-02T06:36:51.963Z,14.78
2022-10-02T06:37:41.935Z,14.80
2022-10-02T06:38:31.934Z,14.83
2022-10-02T06:39:21.914Z,14.83
2022-10-02T06:40:11.913Z,14.83
2022-10-02T06:41:01.905Z,14.85
2022-10-02T06:41:51.946Z,14.83
2022-10-02T06:42:41.913Z,14.83
2022-10-02T06:43:31.875Z,14.83
2022-10-02T06:44:21.855Z,14.85
2022-10-02T06:45:11.854Z,14.85
2022-10-02T06:46:01.896Z,14.85
2022-10-02T06:46:51.835Z,14.86
2022-10-02T06:47:42.034Z,14.86
2022-10-02T06:48:31.834Z,14.85
2022-10-02T06:49:21.807Z,14.87
2022-10-02T06:50:11.824Z,14.93
2022-10-02T06:51:01.785Z,14.93
2022-10-02T06:51:51.773Z,14.98
2022-10-02T06:52:41.765Z,15.00
2022-10-02T06:53:31.766Z,15.00
2022-10-02T06:54:21.752Z,15.01
2022-10-02T06:55:11.744Z,15.01
2022-10-02T06:56:01.972Z,15.04
2022-10-02T06:56:51.727Z,15.00
2022-10-02T06:57:41.706Z,15.03
2022-10-02T06:58:31.703Z,15.01
2022-10-02T06:59:21.695Z,15.03
2022-10-02T07:00:11.683Z,15.04
2022-10-02T07:01:01.709Z,15.05
2022-10-02T07:01:56.399Z,15.09
2022-10-02T07:02:42.651Z,15.13
2022-10-02T07:03:31.646Z,15.15
2022-10-02T07:04:21.646Z,15.18
2022-10-02T07:05:11.627Z,15.18
2022-10-02T07:06:01.616Z,15.16
2022-10-02T07:06:51.612Z,15.12
2022-10-02T07:07:41.633Z,15.07
2022-10-02T07:08:31.592Z,15.05
2022-10-02T07:09:21.582Z,15.07
2022-10-02T07:10:11.578Z,15.09
2022-10-02T07:11:01.576Z,15.11
2022-10-02T07:11:51.565Z,15.15
2022-10-02T07:12:41.543Z,15.19
2022-10-02T07:13:31.755Z,15.22
2022-10-02T07:14:21.522Z,15.23
2022-10-02T07:15:11.522Z,15.27
2022-10-02T07:16:01.573Z,15.33
2022-10-02T07:16:51.549Z,15.34
2022-10-02T07:17:41.489Z,15.38
2022-10-02T07:18:31.484Z,15.40
2022-10-02T07:19:21.493Z,15.40
2022-10-02T07:20:11.468Z,15.37
2022-10-02T07:21:01.451Z,15.34
2022-10-02T07:21:51.443Z,15.31
2022-10-02T07:22:44.954Z,15.31
2022-10-02T07:23:31.424Z,15.31
2022-10-02T07:24:21.412Z,15.31
2022-10-02T07:25:11.436Z,15.31
2022-10-02T07:26:01.392Z,15.38
2022-10-02T07:26:51.391Z,15.43
2022-10-02T07:27:41.372Z,15.48
2022-10-02T07:28:31.427Z,15.51
2022-10-02T07:29:21.412Z,15.53
2022-10-02T07:30:11.354Z,15.58
2022-10-02T07:31:01.352Z,15.64
2022-10-02T07:31:51.353Z,15.68
2022-10-02T07:32:41.311Z,15.68
2022-10-02T07:33:31.312Z,15.68
2022-10-02T07:34:21.301Z,15.71
2022-10-02T07:35:11.324Z,15.78
2022-10-02T07:36:01.292Z,15.81
2022-10-02T07:36:51.274Z,15.85
2022-10-02T07:37:41.261Z,15.88
2022-10-02T07:38:31.262Z,15.92
2022-10-02T07:39:21.253Z,15.95
2022-10-02T07:40:11.241Z,15.98
2022-10-02T07:41:01.461Z,16.01
2022-10-02T07:41:51.222Z,16.04
2022-10-02T07:42:41.219Z,16.06
2022-10-02T07:43:31.219Z,16.06
2022-10-02T07:44:21.194Z,16.08
2022-10-02T07:45:11.182Z,16.11
2022-10-02T07:46:01.208Z,16.13
2022-10-02T07:46:51.193Z,16.16
2022-10-02T07:47:41.152Z,16.18
2022-10-02T07:48:31.154Z,16.23
2022-10-02T07:49:21.136Z,16.29
2022-10-02T07:50:11.131Z,16.26
2022-10-02T07:51:01.113Z,16.27
2022-10-02T07:51:51.110Z,16.29
2022-10-02T07:52:41.261Z,16.30
2022-10-02T07:53:31.092Z,16.33
2022-10-02T07:54:21.079Z,16.29
2022-10-02T07:55:11.072Z,16.33
2022-10-02T07:56:01.058Z,16.37
2022-10-02T07:56:51.060Z,16.41
2022-10-02T07:57:41.044Z,16.44
2022-10-02T07:58:31.092Z,16.42
2022-10-02T07:59:21.023Z,16.44
2022-10-02T08:00:11.026Z,16.44
2022-10-02T08:01:01.002Z,16.40
2022-10-02T08:01:51.082Z,16.40
2022-10-02T08:02:40.981Z,16.41
2022-10-02T08:03:31.044Z,16.40
2022-10-02T08:04:21.192Z,16.34
2022-10-02T08:05:10.959Z,16.32
2022-10-02T08:06:00.941Z,16.36
2022-10-02T08:06:50.950Z,16.41
2022-10-02T08:07:40.929Z,16.48
2022-10-02T08:08:30.933Z,16.54
2022-10-02T08:09:20.920Z,16.59
2022-10-02T08:10:10.961Z,16.60
2022-10-02T08:11:00.902Z,16.65
2022-10-02T08:11:50.889Z,16.67
2022-10-02T08:12:40.871Z,16.70
2022-10-02T08:13:30.861Z,16.72
2022-10-02T08:14:20.862Z,16.75
2022-10-02T08:15:10.852Z,16.73
2022-10-02T08:16:01.077Z,16.75
2022-10-02T08:16:50.879Z,16.78
2022-10-02T08:17:40.819Z,16.78
2022-10-02T08:18:34.711Z,16.73
2022-10-02T08:19:20.811Z,16.77
2022-10-02T08:20:10.790Z,16.77
2022-10-02T08:21:00.781Z,16.77
2022-10-02T08:21:50.812Z,16.81
2022-10-02T08:22:40.779Z,16.88
2022-10-02T08:23:30.760Z,16.92
2022-10-02T08:24:20.742Z,16.92
2022-10-02T08:25:10.740Z,16.91
2022-10-02T08:26:00.723Z,16.95
2022-10-02T08:26:50.723Z,16.99
2022-10-02T08:27:40.747Z,17.03
2022-10-02T08:28:30.777Z,17.12
2022-10-02T08:29:20.700Z,17.12
2022-10-02T08:30:10.692Z,17.12
2022-10-02T08:31:00.672Z,17.14
2022-10-02T08:31:50.714Z,17.07
2022-10-02T08:32:40.650Z,17.07
2022-10-02T08:33:30.675Z,17.07
2022-10-02T08:34:20.637Z,17.10
2022-10-02T08:35:10.641Z,17.14
2022-10-02T08:36:00.621Z,17.15
2022-10-02T08:36:50.707Z,17.12
2022-10-02T08:37:40.597Z,17.06
2022-10-02T08:38:30.592Z,17.07
2022-10-02T08:39:21.170Z,17.10
2022-10-02T08:40:10.570Z,17.14
2022-10-02T08:41:00.569Z,17.12
2022-10-02T08:41:50.551Z,17.15
2022-10-02T08:42:40.540Z,17.14
2022-10-02T08:43:30.539Z,17.14
2022-10-02T08:44:20.521Z,17.10
2022-10-02T08:45:10.553Z,17.10
2022-10-02T08:46:00.573Z,17.07
2022-10-02T08:46:50.502Z,17.10
2022-10-02T08:47:40.490Z,17.14
2022-10-02T08:48:30.479Z,17.17
2022-10-02T08:49:20.470Z,17.21
2022-10-02T08:50:10.470Z,17.22
2022-10-02T08:51:00.480Z,17.24
2022-10-02T08:51:50.441Z,17.21
2022-10-02T08:52:40.431Z,17.21
2022-10-02T08:53:30.429Z,17.24
2022-10-02T08:54:20.419Z,17.27
2022-10-02T08:55:10.400Z,17.28
2022-10-02T08:56:00.402Z,17.28
2022-10-02T08:56:50.446Z,17.33
2022-10-02T08:57:40.380Z,17.39
2022-10-02T08:58:30.360Z,17.39
2022-10-02T08:59:20.368Z,17.40
2022-10-02T09:00:10.352Z,17.40
2022-10-02T09:01:00.376Z,17.39
2022-10-02T09:01:50.417Z,17.40
2022-10-02T09:02:40.376Z,17.42
2022-10-02T09:03:30.309Z,17.45
2022-10-02T09:04:20.310Z,17.53
2022-10-02T09:05:10.289Z,17.55
2022-10-02T09:06:00.333Z,17.60
2022-10-02T09:06:50.271Z,17.63
2022-10-02T09:07:40.279Z,17.70
2022-10-02T09:08:30.290Z,17.73
2022-10-02T09:09:20.254Z,17.79
2022-10-02T09:10:10.239Z,17.86
2022-10-02T09:11:00.239Z,17.92
2022-10-02T09:11:50.220Z,17.92
2022-10-02T09:12:41.256Z,17.92
2022-10-02T09:13:30.201Z,17.95
2022-10-02T09:14:20.199Z,17.92
2022-10-02T09:15:10.179Z,17.84
2022-10-02T09:16:00.234Z,17.81
2022-10-02T09:16:50.223Z,17.79
2022-10-02T09:17:40.162Z,17.84
2022-10-02T09:18:30.185Z,17.86
2022-10-02T09:19:20.140Z,17.84
2022-10-02T09:20:10.132Z,17.81
2022-10-02T09:21:00.130Z,17.81
2022-10-02T09:21:50.113Z,17.76
2022-10-02T09:22:40.112Z,17.81
2022-10-02T09:23:30.090Z,17.83
2022-10-02T09:24:20.172Z,17.80
2022-10-02T09:25:10.073Z,17.79
2022-10-02T09:26:00.085Z,17.81
2022-10-02T09:26:50.058Z,17.87
2022-10-02T09:27:40.051Z,17.92
2022-10-02T09:28:30.055Z,17.99
2022-10-02T09:29:20.028Z,18.09
2022-10-02T09:30:10.047Z,18.11
2022-10-02T09:31:00.011Z,18.11
2022-10-02T09:31:50.059Z,18.19
2022-10-02T09:32:39.998Z,18.17
2022-10-02T09:33:29.979Z,18.17
2022-10-02T09:34:19.978Z,18.21
2022-10-02T09:35:09.960Z,18.20
2022-10-02T09:35:59.992Z,18.25
2022-10-02T09:36:49.949Z,18.26
2022-10-02T09:37:39.939Z,18.26
2022-10-02T09:38:29.936Z,18.31
2022-10-02T09:39:19.918Z,18.31
2022-10-02T09:40:09.917Z,18.26
2022-10-02T09:40:59.899Z,18.19
2022-10-02T09:41:49.950Z,18.14
2022-10-02T09:42:39.878Z,18.14
2022-10-02T09:43:29.888Z,18.20
2022-10-02T09:44:19.898Z,18.28
2022-10-02T09:45:09.856Z,18.31
2022-10-02T09:45:59.927Z,18.29
2022-10-02T09:46:49.840Z,18.34
2022-10-02T09:47:39.839Z,18.36
2022-10-02T09:48:29.819Z,18.41
2022-10-02T09:49:19.910Z,18.47
2022-10-02T09:50:09.797Z,18.56
2022-10-02T09:50:59.798Z,18.66
2022-10-02T09:51:49.798Z,18.69
2022-10-02T09:52:42.775Z,18.76
2022-10-02T09:53:29.761Z,18.83
2022-10-02T09:54:19.759Z,18.87
2022-10-02T09:55:09.750Z,18.93
2022-10-02T09:55:59.739Z,18.86
2022-10-02T09:56:49.775Z,18.87
2022-10-02T09:57:39.719Z,18.90
2022-10-02T09:58:29.728Z,18.89
2022-10-02T09:59:19.704Z,18.79
2022-10-02T10:00:09.688Z,18.76
2022-10-02T10:00:59.749Z,18.79
2022-10-02T10:01:49.717Z,18.82
2022-10-02T10:02:40.043Z,18.76
2022-10-02T10:03:29.656Z,18.60
2022-10-02T10:04:19.660Z,18.59
2022-10-02T10:05:09.639Z,18.57
2022-10-02T10:05:59.634Z,18.62
2022-10-02T10:06:49.611Z,18.72
2022-10-02T10:07:39.611Z,18.76
2022-10-02T10:08:29.642Z,18.79
2022-10-02T10:09:19.603Z,18.84
2022-10-02T10:10:09.581Z,18.89
2022-10-02T10:10:59.580Z,18.96
2022-10-02T10:11:49.564Z,19.06
2022-10-02T10:12:39.552Z,19.16
2022-10-02T10:13:29.552Z,19.20
2022-10-02T10:14:19.643Z,19.23
2022-10-02T10:15:09.522Z,19.25
2022-10-02T10:15:59.553Z,19.32
2022-10-02T10:16:49.538Z,19.35
2022-10-02T10:17:39.500Z,19.46
2022-10-02T10:18:29.492Z,19.45
2022-10-02T10:19:19.497Z,19.50
2022-10-02T10:20:09.691Z,19.46
2022-10-02T10:20:59.471Z,19.43
2022-10-02T10:21:49.458Z,19.35
2022-10-02T10:22:39.454Z,19.34
2022-10-02T10:23:29.441Z,19.40
2022-10-02T10:24:19.431Z,19.45
2022-10-02T10:25:09.413Z,19.40
2022-10-02T10:25:59.659Z,19.43
2022-10-02T10:26:49.402Z,19.50
2022-10-02T10:27:39.414Z,19.53
2022-10-02T10:28:29.438Z,19.57
2022-10-02T10:29:19.407Z,19.60
2022-10-02T10:30:09.361Z,19.64
2022-10-02T10:30:59.352Z,19.61
2022-10-02T10:31:49.428Z,19.65
2022-10-02T10:32:39.368Z,19.70
2022-10-02T10:33:29.332Z,19.60
2022-10-02T10:34:19.311Z,19.57
2022-10-02T10:35:09.311Z,19.58
2022-10-02T10:35:59.304Z,19.58
2022-10-02T10:36:49.293Z,19.30
2022-10-02T10:37:39.501Z,19.13
2022-10-02T10:38:29.271Z,19.06
2022-10-02T10:39:19.271Z,19.10
2022-10-02T10:40:09.263Z,19.15
2022-10-02T10:40:59.378Z,19.23
2022-10-02T10:41:49.236Z,19.28
2022-10-02T10:43:02.975Z,19.24
2022-10-02T10:43:30.432Z,19.27